sensor_id;sensor_type;location;lat;lon;timestamp;pressure;altitude;pressure_sealevel;temperature
27826;BMP280;15077;49.704;9.908;2024-01-06T00:01:03;96901.50;;;9.68
27826;BMP280;15077;49.704;9.908;2024-01-06T00:03:29;96896.44;;;9.68
27826;BMP280;15077;49.704;9.908;2024-01-06T00:05:56;96902.31;;;9.69
27826;BMP280;15077;49.704;9.908;2024-01-06T00:08:25;96903.94;;;9.70
27826;BMP280;15077;49.704;9.908;2024-01-06T00:10:51;96901.31;;;9.71
27826;BMP280;15077;49.704;9.908;2024-01-06T00:13:18;96897.16;;;9.70
27826;BMP280;15077;49.704;9.908;2024-01-06T00:15:43;96902.97;;;9.72
27826;BMP280;15077;49.704;9.908;2024-01-06T00:18:09;96901.31;;;9.71
27826;BMP280;15077;49.704;9.908;2024-01-06T00:20:35;96901.25;;;9.73
27826;BMP280;15077;49.704;9.908;2024-01-06T00:23:00;96904.56;;;9.73
27826;BMP280;15077;49.704;9.908;2024-01-06T00:25:26;96906.38;;;9.71
27826;BMP280;15077;49.704;9.908;2024-01-06T00:27:51;96906.38;;;9.71
27826;BMP280;15077;49.704;9.908;2024-01-06T00:30:18;96902.13;;;9.72
27826;BMP280;15077;49.704;9.908;2024-01-06T00:32:45;96894.63;;;9.70
27826;BMP280;15077;49.704;9.908;2024-01-06T00:35:13;96898.88;;;9.70
27826;BMP280;15077;49.704;9.908;2024-01-06T00:37:40;96904.03;;;9.68
27826;BMP280;15077;49.704;9.908;2024-01-06T00:40:10;96906.72;;;9.66
27826;BMP280;15077;49.704;9.908;2024-01-06T00:42:37;96906.06;;;9.62
27826;BMP280;15077;49.704;9.908;2024-01-06T00:45:04;96905.59;;;9.56
27826;BMP280;15077;49.704;9.908;2024-01-06T00:47:32;96907.56;;;9.51
27826;BMP280;15077;49.704;9.908;2024-01-06T00:49:57;96905.28;;;9.46
27826;BMP280;15077;49.704;9.908;2024-01-06T00:52:23;96908.00;;;9.43
27826;BMP280;15077;49.704;9.908;2024-01-06T00:54:49;96914.91;;;9.40
27826;BMP280;15077;49.704;9.908;2024-01-06T00:57:14;96915.06;;;9.37
27826;BMP280;15077;49.704;9.908;2024-01-06T00:59:40;96925.34;;;9.34
27826;BMP280;15077;49.704;9.908;2024-01-06T01:02:05;96910.50;;;9.28
27826;BMP280;15077;49.704;9.908;2024-01-06T01:04:31;96921.63;;;9.25
27826;BMP280;15077;49.704;9.908;2024-01-06T01:06:57;96926.00;;;9.22
27826;BMP280;15077;49.704;9.908;2024-01-06T01:09:22;96926.19;;;9.19
27826;BMP280;15077;49.704;9.908;2024-01-06T01:11:48;96928.88;;;9.16
27826;BMP280;15077;49.704;9.908;2024-01-06T01:14:13;96939.06;;;9.15
27826;BMP280;15077;49.704;9.908;2024-01-06T01:16:39;96936.63;;;9.13
27826;BMP280;15077;49.704;9.908;2024-01-06T01:19:05;96937.50;;;9.12
27826;BMP280;15077;49.704;9.908;2024-01-06T01:21:30;96934.97;;;9.12
27826;BMP280;15077;49.704;9.908;2024-01-06T01:23:56;96941.66;;;9.13
27826;BMP280;15077;49.704;9.908;2024-01-06T01:26:21;96950.88;;;9.14
27826;BMP280;15077;49.704;9.908;2024-01-06T01:28:47;96947.44;;;9.15
27826;BMP280;15077;49.704;9.908;2024-01-06T01:31:13;96944.09;;;9.15
27826;BMP280;15077;49.704;9.908;2024-01-06T01:33:39;96945.84;;;9.14
27826;BMP280;15077;49.704;9.908;2024-01-06T01:36:04;96947.53;;;9.14
27826;BMP280;15077;49.704;9.908;2024-01-06T01:38:30;96955.09;;;9.14
27826;BMP280;15077;49.704;9.908;2024-01-06T01:40:58;96949.25;;;9.13
27826;BMP280;15077;49.704;9.908;2024-01-06T01:43:25;96961.00;;;9.14
27826;BMP280;15077;49.704;9.908;2024-01-06T01:45:53;96967.75;;;9.14
27826;BMP280;15077;49.704;9.908;2024-01-06T01:48:22;96964.50;;;9.12
27826;BMP280;15077;49.704;9.908;2024-01-06T01:50:49;96967.91;;;9.11
27826;BMP280;15077;49.704;9.908;2024-01-06T01:53:15;96973.97;;;9.08
27826;BMP280;15077;49.704;9.908;2024-01-06T01:55:42;96984.94;;;9.07
27826;BMP280;15077;49.704;9.908;2024-01-06T01:58:09;96974.91;;;9.06
27826;BMP280;15077;49.704;9.908;2024-01-06T02:00:36;96985.09;;;9.04
27826;BMP280;15077;49.704;9.908;2024-01-06T02:03:03;96986.00;;;9.03
27826;BMP280;15077;49.704;9.908;2024-01-06T02:05:31;96981.03;;;9.02
27826;BMP280;15077;49.704;9.908;2024-01-06T02:07:57;96988.59;;;9.02
27826;BMP280;15077;49.704;9.908;2024-01-06T02:10:23;96981.84;;;9.02
27826;BMP280;15077;49.704;9.908;2024-01-06T02:12:49;96977.59;;;9.03
27826;BMP280;15077;49.704;9.908;2024-01-06T02:15:18;96971.00;;;9.00
27826;BMP280;15077;49.704;9.908;2024-01-06T02:17:44;96976.97;;;8.99
27826;BMP280;15077;49.704;9.908;2024-01-06T02:20:11;96980.44;;;8.97
27826;BMP280;15077;49.704;9.908;2024-01-06T02:22:37;96974.81;;;8.92
27826;BMP280;15077;49.704;9.908;2024-01-06T02:25:07;96982.47;;;8.90
27826;BMP280;15077;49.704;9.908;2024-01-06T02:27:40;96976.75;;;8.87
27826;BMP280;15077;49.704;9.908;2024-01-06T02:30:06;96982.03;;;8.82
27826;BMP280;15077;49.704;9.908;2024-01-06T02:32:33;96982.88;;;8.83
27826;BMP280;15077;49.704;9.908;2024-01-06T02:34:58;96982.03;;;8.82
27826;BMP280;15077;49.704;9.908;2024-01-06T02:37:24;96982.13;;;8.81
27826;BMP280;15077;49.704;9.908;2024-01-06T02:39:50;96983.84;;;8.80
27826;BMP280;15077;49.704;9.908;2024-01-06T02:42:17;96974.63;;;8.79
27826;BMP280;15077;49.704;9.908;2024-01-06T02:44:42;96985.63;;;8.78
27826;BMP280;15077;49.704;9.908;2024-01-06T02:47:08;96985.63;;;8.78
27826;BMP280;15077;49.704;9.908;2024-01-06T02:49:33;96991.41;;;8.80
27826;BMP280;15077;49.704;9.908;2024-01-06T02:51:59;96995.59;;;8.81
27826;BMP280;15077;49.704;9.908;2024-01-06T02:54:24;96996.41;;;8.82
27826;BMP280;15077;49.704;9.908;2024-01-06T02:56:50;96998.13;;;8.81
27826;BMP280;15077;49.704;9.908;2024-01-06T02:59:16;96995.59;;;8.81
27826;BMP280;15077;49.704;9.908;2024-01-06T03:01:41;96996.41;;;8.82
27826;BMP280;15077;49.704;9.908;2024-01-06T03:04:07;96991.41;;;8.80
27826;BMP280;15077;49.704;9.908;2024-01-06T03:06:34;96997.19;;;8.82
27826;BMP280;15077;49.704;9.908;2024-01-06T03:09:00;97002.25;;;8.82
27826;BMP280;15077;49.704;9.908;2024-01-06T03:11:25;96998.03;;;8.83
27826;BMP280;15077;49.704;9.908;2024-01-06T03:13:51;97005.63;;;8.83
27826;BMP280;15077;49.704;9.908;2024-01-06T03:16:16;97004.06;;;8.80
27826;BMP280;15077;49.704;9.908;2024-01-06T03:18:42;96998.34;;;8.77
27826;BMP280;15077;49.704;9.908;2024-01-06T03:21:20;96993.41;;;8.74
27826;BMP280;15077;49.704;9.908;2024-01-06T03:23:47;96996.94;;;8.71
27826;BMP280;15077;49.704;9.908;2024-01-06T03:26:13;96998.63;;;8.71
27826;BMP280;15077;49.704;9.908;2024-01-06T03:28:39;97004.50;;;8.71
27826;BMP280;15077;49.704;9.908;2024-01-06T03:31:04;97006.88;;;8.74
27826;BMP280;15077;49.704;9.908;2024-01-06T03:33:30;97012.00;;;8.73
27826;BMP280;15077;49.704;9.908;2024-01-06T03:35:56;97004.50;;;8.71
27826;BMP280;15077;49.704;9.908;2024-01-06T03:38:21;97012.97;;;8.70
27826;BMP280;15077;49.704;9.908;2024-01-06T03:40:47;97012.31;;;8.67
27826;BMP280;15077;49.704;9.908;2024-01-06T03:43:12;97006.59;;;8.64
27826;BMP280;15077;49.704;9.908;2024-01-06T03:45:38;97017.69;;;8.61
27826;BMP280;15077;49.704;9.908;2024-01-06T03:48:04;97017.00;;;8.58
27826;BMP280;15077;49.704;9.908;2024-01-06T03:50:30;97016.34;;;8.54
27826;BMP280;15077;49.704;9.908;2024-01-06T03:52:55;97010.63;;;8.51
27826;BMP280;15077;49.704;9.908;2024-01-06T03:55:21;97024.94;;;8.50
27826;BMP280;15077;49.704;9.908;2024-01-06T03:57:46;97027.53;;;8.49
27826;BMP280;15077;49.704;9.908;2024-01-06T04:00:12;97032.59;;;8.49
27826;BMP280;15077;49.704;9.908;2024-01-06T04:02:38;97028.59;;;8.45
27826;BMP280;15077;49.704;9.908;2024-01-06T04:05:04;97026.09;;;8.45
27826;BMP280;15077;49.704;9.908;2024-01-06T04:07:30;97030.28;;;8.44
27826;BMP280;15077;49.704;9.908;2024-01-06T04:09:56;97024.44;;;8.44
27826;BMP280;15077;49.704;9.908;2024-01-06T04:12:21;97024.44;;;8.44
27826;BMP280;15077;49.704;9.908;2024-01-06T04:14:47;97028.69;;;8.43
27826;BMP280;15077;49.704;9.908;2024-01-06T04:17:13;97022.88;;;8.41
27826;BMP280;15077;49.704;9.908;2024-01-06T04:19:40;97028.00;;;8.40
27826;BMP280;15077;49.704;9.908;2024-01-06T04:22:06;97028.84;;;8.40
27826;BMP280;15077;49.704;9.908;2024-01-06T04:24:33;97031.44;;;8.39
27826;BMP280;15077;49.704;9.908;2024-01-06T04:27:05;97031.44;;;8.39
27826;BMP280;15077;49.704;9.908;2024-01-06T04:29:31;97033.97;;;8.39
27826;BMP280;15077;49.704;9.908;2024-01-06T04:31:56;97033.88;;;8.40
27826;BMP280;15077;49.704;9.908;2024-01-06T04:34:22;97031.22;;;8.43
27826;BMP280;15077;49.704;9.908;2024-01-06T04:36:48;97041.31;;;8.43
27826;BMP280;15077;49.704;9.908;2024-01-06T04:39:15;97035.41;;;8.43
27826;BMP280;15077;49.704;9.908;2024-01-06T04:41:40;97041.38;;;8.42
27826;BMP280;15077;49.704;9.908;2024-01-06T04:44:06;97032.22;;;8.39
27826;BMP280;15077;49.704;9.908;2024-01-06T04:46:32;97032.31;;;8.38
27826;BMP280;15077;49.704;9.908;2024-01-06T04:48:57;97028.97;;;8.37
27826;BMP280;15077;49.704;9.908;2024-01-06T04:51:23;97031.44;;;8.39
27826;BMP280;15077;49.704;9.908;2024-01-06T04:53:49;97031.34;;;8.40
27826;BMP280;15077;49.704;9.908;2024-01-06T04:56:14;97024.59;;;8.41
27826;BMP280;15077;49.704;9.908;2024-01-06T04:58:40;97021.91;;;8.44
27826;BMP280;15077;49.704;9.908;2024-01-06T05:01:06;97021.03;;;8.45
27826;BMP280;15077;49.704;9.908;2024-01-06T05:03:34;97024.28;;;8.47
27826;BMP280;15077;49.704;9.908;2024-01-06T05:06:00;97024.28;;;8.47
27826;BMP280;15077;49.704;9.908;2024-01-06T05:08:26;97024.28;;;8.47
27826;BMP280;15077;49.704;9.908;2024-01-06T05:10:52;97020.19;;;8.44
27826;BMP280;15077;49.704;9.908;2024-01-06T05:13:18;97024.50;;;8.42
27826;BMP280;15077;49.704;9.908;2024-01-06T05:15:44;97034.69;;;8.41
27826;BMP280;15077;49.704;9.908;2024-01-06T05:18:10;97034.03;;;8.37
27826;BMP280;15077;49.704;9.908;2024-01-06T05:20:35;97037.50;;;8.35
27826;BMP280;15077;49.704;9.908;2024-01-06T05:23:01;97036.63;;;8.36
27826;BMP280;15077;49.704;9.908;2024-01-06T05:25:26;97040.91;;;8.34
27826;BMP280;15077;49.704;9.908;2024-01-06T05:27:52;97041.97;;;8.30
27826;BMP280;15077;49.704;9.908;2024-01-06T05:30:17;97046.31;;;8.26
27826;BMP280;15077;49.704;9.908;2024-01-06T05:32:43;97043.06;;;8.24
27826;BMP280;15077;49.704;9.908;2024-01-06T05:35:09;97049.06;;;8.22
27826;BMP280;15077;49.704;9.908;2024-01-06T05:37:35;97055.69;;;8.24
27826;BMP280;15077;49.704;9.908;2024-01-06T05:40:01;97050.56;;;8.26
27826;BMP280;15077;49.704;9.908;2024-01-06T05:42:29;97060.66;;;8.26
27826;BMP280;15077;49.704;9.908;2024-01-06T05:44:55;97067.31;;;8.27
27826;BMP280;15077;49.704;9.908;2024-01-06T05:47:21;97066.38;;;8.29
27826;BMP280;15077;49.704;9.908;2024-01-06T05:49:47;97065.56;;;8.29
27826;BMP280;15077;49.704;9.908;2024-01-06T05:52:12;97071.41;;;8.29
27826;BMP280;15077;49.704;9.908;2024-01-06T05:54:41;97072.25;;;8.30
27826;BMP280;15077;49.704;9.908;2024-01-06T05:57:08;97075.75;;;8.27
27826;BMP280;15077;49.704;9.908;2024-01-06T05:59:34;97085.00;;;8.27
27826;BMP280;15077;49.704;9.908;2024-01-06T06:02:00;97085.06;;;8.25
27826;BMP280;15077;49.704;9.908;2024-01-06T06:04:26;97088.66;;;8.22
27826;BMP280;15077;49.704;9.908;2024-01-06T06:06:51;97086.19;;;8.20
27826;BMP280;15077;49.704;9.908;2024-01-06T06:09:17;97088.78;;;8.19
27826;BMP280;15077;49.704;9.908;2024-01-06T06:11:43;97093.06;;;8.17
27826;BMP280;15077;49.704;9.908;2024-01-06T06:14:09;97098.19;;;8.15
27826;BMP280;15077;49.704;9.908;2024-01-06T06:16:35;97103.31;;;8.14
27826;BMP280;15077;49.704;9.908;2024-01-06T06:19:03;97100.09;;;8.10
27826;BMP280;15077;49.704;9.908;2024-01-06T06:21:28;97102.63;;;8.10
27826;BMP280;15077;49.704;9.908;2024-01-06T06:23:54;97109.44;;;8.08
27826;BMP280;15077;49.704;9.908;2024-01-06T06:26:20;97115.38;;;8.07
27826;BMP280;15077;49.704;9.908;2024-01-06T06:28:45;97130.50;;;8.07
27826;BMP280;15077;49.704;9.908;2024-01-06T06:31:23;97133.91;;;8.06
27826;BMP280;15077;49.704;9.908;2024-01-06T06:33:49;97133.03;;;8.07
27826;BMP280;15077;49.704;9.908;2024-01-06T06:36:14;97135.56;;;8.07
27826;BMP280;15077;49.704;9.908;2024-01-06T06:38:40;97130.50;;;8.07
27826;BMP280;15077;49.704;9.908;2024-01-06T06:41:05;97138.00;;;8.09
27826;BMP280;15077;49.704;9.908;2024-01-06T06:43:33;97133.75;;;8.09
27826;BMP280;15077;49.704;9.908;2024-01-06T06:45:58;97135.41;;;8.10
27826;BMP280;15077;49.704;9.908;2024-01-06T06:48:24;97138.75;;;8.11
27826;BMP280;15077;49.704;9.908;2024-01-06T06:50:50;97142.94;;;8.12
27826;BMP280;15077;49.704;9.908;2024-01-06T06:53:15;97147.16;;;8.11
27826;BMP280;15077;49.704;9.908;2024-01-06T06:55:41;97154.72;;;8.11
27826;BMP280;15077;49.704;9.908;2024-01-06T06:58:07;97158.13;;;8.10
27826;BMP280;15077;49.704;9.908;2024-01-06T07:00:32;97161.44;;;8.11
27826;BMP280;15077;49.704;9.908;2024-01-06T07:02:58;97157.31;;;8.10
27826;BMP280;15077;49.704;9.908;2024-01-06T07:05:24;97159.84;;;8.10
27826;BMP280;15077;49.704;9.908;2024-01-06T07:07:49;97157.38;;;8.08
27826;BMP280;15077;49.704;9.908;2024-01-06T07:10:15;97155.75;;;8.07
27826;BMP280;15077;49.704;9.908;2024-01-06T07:12:41;97155.66;;;8.09
27826;BMP280;15077;49.704;9.908;2024-01-06T07:15:09;97159.00;;;8.09
27826;BMP280;15077;49.704;9.908;2024-01-06T07:17:36;97160.66;;;8.10
27826;BMP280;15077;49.704;9.908;2024-01-06T07:20:02;97164.03;;;8.09
27826;BMP280;15077;49.704;9.908;2024-01-06T07:22:28;97167.34;;;8.11
27826;BMP280;15077;49.704;9.908;2024-01-06T07:24:54;97163.06;;;8.13
27826;BMP280;15077;49.704;9.908;2024-01-06T07:27:19;97170.50;;;8.16
27826;BMP280;15077;49.704;9.908;2024-01-06T07:29:46;97162.03;;;8.17
27826;BMP280;15077;49.704;9.908;2024-01-06T07:32:11;97174.59;;;8.19
27826;BMP280;15077;49.704;9.908;2024-01-06T07:34:37;97180.38;;;8.21
27826;BMP280;15077;49.704;9.908;2024-01-06T07:37:03;97183.72;;;8.21
27826;BMP280;15077;49.704;9.908;2024-01-06T07:39:28;97182.91;;;8.21
27826;BMP280;15077;49.704;9.908;2024-01-06T07:41:54;97193.66;;;8.24
27826;BMP280;15077;49.704;9.908;2024-01-06T07:44:19;97200.38;;;8.25
27826;BMP280;15077;49.704;9.908;2024-01-06T07:46:50;97201.09;;;8.27
27826;BMP280;15077;49.704;9.908;2024-01-06T07:49:17;97201.59;;;8.35
27826;BMP280;15077;49.704;9.908;2024-01-06T07:51:42;97212.22;;;8.41
27826;BMP280;15077;49.704;9.908;2024-01-06T07:54:08;97207.88;;;8.45
27826;BMP280;15077;49.704;9.908;2024-01-06T07:56:35;97207.72;;;8.48
27826;BMP280;15077;49.704;9.908;2024-01-06T07:59:01;97214.38;;;8.49
27826;BMP280;15077;49.704;9.908;2024-01-06T08:01:27;97216.84;;;8.50
27826;BMP280;15077;49.704;9.908;2024-01-06T08:03:53;97214.25;;;8.52
27826;BMP280;15077;49.704;9.908;2024-01-06T08:06:19;97219.22;;;8.53
27826;BMP280;15077;49.704;9.908;2024-01-06T08:08:44;97219.16;;;8.55
27826;BMP280;15077;49.704;9.908;2024-01-06T08:11:11;97219.00;;;8.58
27826;BMP280;15077;49.704;9.908;2024-01-06T08:13:37;97222.31;;;8.60
27826;BMP280;15077;49.704;9.908;2024-01-06T08:16:04;97216.28;;;8.62
27826;BMP280;15077;49.704;9.908;2024-01-06T08:18:30;97227.22;;;8.63
27826;BMP280;15077;49.704;9.908;2024-01-06T08:20:55;97229.59;;;8.66
27826;BMP280;15077;49.704;9.908;2024-01-06T08:23:21;97228.69;;;8.67
27826;BMP280;15077;49.704;9.908;2024-01-06T08:25:47;97236.13;;;8.69
27826;BMP280;15077;49.704;9.908;2024-01-06T08:28:13;97227.75;;;8.69
27826;BMP280;15077;49.704;9.908;2024-01-06T08:30:40;97236.88;;;8.71
27826;BMP280;15077;49.704;9.908;2024-01-06T08:33:06;97240.16;;;8.73
27826;BMP280;15077;49.704;9.908;2024-01-06T08:35:31;97240.00;;;8.76
27826;BMP280;15077;49.704;9.908;2024-01-06T08:37:57;97248.34;;;8.78
27826;BMP280;15077;49.704;9.908;2024-01-06T08:40:23;97249.16;;;8.79
27826;BMP280;15077;49.704;9.908;2024-01-06T08:42:49;97245.75;;;8.80
27826;BMP280;15077;49.704;9.908;2024-01-06T08:45:14;97253.25;;;8.81
27826;BMP280;15077;49.704;9.908;2024-01-06T08:47:40;97249.03;;;8.82
27826;BMP280;15077;49.704;9.908;2024-01-06T08:50:07;97258.25;;;8.83
27826;BMP280;15077;49.704;9.908;2024-01-06T08:52:33;97260.72;;;8.84
27826;BMP280;15077;49.704;9.908;2024-01-06T08:54:58;97252.28;;;8.84
27826;BMP280;15077;49.704;9.908;2024-01-06T08:57:24;97256.47;;;8.85
27826;BMP280;15077;49.704;9.908;2024-01-06T08:59:49;97256.38;;;8.86
27826;BMP280;15077;49.704;9.908;2024-01-06T09:02:15;97258.78;;;8.89
27826;BMP280;15077;49.704;9.908;2024-01-06T09:04:41;97251.03;;;8.92
27826;BMP280;15077;49.704;9.908;2024-01-06T09:07:06;97264.34;;;8.96
27826;BMP280;15077;49.704;9.908;2024-01-06T09:09:32;97264.28;;;8.97
27826;BMP280;15077;49.704;9.908;2024-01-06T09:11:57;97264.13;;;9.00
27826;BMP280;15077;49.704;9.908;2024-01-06T09:14:26;97266.50;;;9.03
27826;BMP280;15077;49.704;9.908;2024-01-06T09:16:51;97268.88;;;9.06
27826;BMP280;15077;49.704;9.908;2024-01-06T09:19:17;97267.84;;;9.10
27826;BMP280;15077;49.704;9.908;2024-01-06T09:21:42;97279.53;;;9.13
27826;BMP280;15077;49.704;9.908;2024-01-06T09:24:08;97273.50;;;9.15
27826;BMP280;15077;49.704;9.908;2024-01-06T09:26:34;97283.47;;;9.18
27826;BMP280;15077;49.704;9.908;2024-01-06T09:29:00;97292.63;;;9.20
27826;BMP280;15077;49.704;9.908;2024-01-06T09:31:26;97282.44;;;9.22
27826;BMP280;15077;49.704;9.908;2024-01-06T09:33:52;97287.34;;;9.25
27826;BMP280;15077;49.704;9.908;2024-01-06T09:36:17;97283.00;;;9.28
27826;BMP280;15077;49.704;9.908;2024-01-06T09:38:43;97287.81;;;9.33
27826;BMP280;15077;49.704;9.908;2024-01-06T09:41:09;97288.47;;;9.36
27826;BMP280;15077;49.704;9.908;2024-01-06T09:43:35;97286.63;;;9.40
27826;BMP280;15077;49.704;9.908;2024-01-06T09:48:40;97293.91;;;9.46
27826;BMP280;15077;49.704;9.908;2024-01-06T09:51:10;97291.31;;;9.47
27826;BMP280;15077;49.704;9.908;2024-01-06T09:53:42;97299.72;;;9.48
27826;BMP280;15077;49.704;9.908;2024-01-06T09:56:08;97299.66;;;9.49
27826;BMP280;15077;49.704;9.908;2024-01-06T09:58:35;97298.81;;;9.49
27826;BMP280;15077;49.704;9.908;2024-01-06T10:01:02;97293.69;;;9.50
27826;BMP280;15077;49.704;9.908;2024-01-06T10:03:28;97297.72;;;9.54
27826;BMP280;15077;49.704;9.908;2024-01-06T10:05:53;97291.69;;;9.57
27826;BMP280;15077;49.704;9.908;2024-01-06T10:08:19;97293.84;;;9.64
27826;BMP280;15077;49.704;9.908;2024-01-06T10:10:45;97291.97;;;9.67
27826;BMP280;15077;49.704;9.908;2024-01-06T10:13:10;97290.78;;;9.74
27826;BMP280;15077;49.704;9.908;2024-01-06T10:15:36;97298.13;;;9.79
27826;BMP280;15077;49.704;9.908;2024-01-06T10:18:02;97305.50;;;9.83
27826;BMP280;15077;49.704;9.908;2024-01-06T10:20:29;97300.28;;;9.86
27826;BMP280;15077;49.704;9.908;2024-01-06T10:22:54;97303.41;;;9.91
27826;BMP280;15077;49.704;9.908;2024-01-06T10:25:23;97304.91;;;9.95
27826;BMP280;15077;49.704;9.908;2024-01-06T10:27:49;97301.34;;;9.99
27826;BMP280;15077;49.704;9.908;2024-01-06T10:30:15;97310.47;;;10.02
27826;BMP280;15077;49.704;9.908;2024-01-06T10:32:43;97308.72;;;10.04
27826;BMP280;15077;49.704;9.908;2024-01-06T10:35:09;97314.44;;;10.07
27826;BMP280;15077;49.704;9.908;2024-01-06T10:37:36;97311.81;;;10.09
27826;BMP280;15077;49.704;9.908;2024-01-06T10:40:10;97314.19;;;10.12
27826;BMP280;15077;49.704;9.908;2024-01-06T10:42:37;97311.50;;;10.15
27826;BMP280;15077;49.704;9.908;2024-01-06T10:45:09;97311.28;;;10.19
27826;BMP280;15077;49.704;9.908;2024-01-06T10:47:39;97313.56;;;10.23
27826;BMP280;15077;49.704;9.908;2024-01-06T10:50:06;97313.50;;;10.25
27826;BMP280;15077;49.704;9.908;2024-01-06T10:52:34;97315.13;;;10.26
27826;BMP280;15077;49.704;9.908;2024-01-06T10:55:01;97323.47;;;10.28
27826;BMP280;15077;49.704;9.908;2024-01-06T10:57:29;97308.28;;;10.28
27826;BMP280;15077;49.704;9.908;2024-01-06T10:59:58;97320.03;;;10.29
27826;BMP280;15077;49.704;9.908;2024-01-06T11:02:25;97316.69;;;10.28
27826;BMP280;15077;49.704;9.908;2024-01-06T11:04:51;97321.69;;;10.30
27826;BMP280;15077;49.704;9.908;2024-01-06T11:07:19;97312.38;;;10.30
27826;BMP280;15077;49.704;9.908;2024-01-06T11:12:17;97313.84;;;10.34
27826;BMP280;15077;49.704;9.908;2024-01-06T11:14:43;97313.00;;;10.34
27826;BMP280;15077;49.704;9.908;2024-01-06T11:17:11;97304.53;;;10.35
27826;BMP280;15077;49.704;9.908;2024-01-06T11:22:28;97308.47;;;10.40
27826;BMP280;15077;49.704;9.908;2024-01-06T11:25:06;97302.41;;;10.43
27826;BMP280;15077;49.704;9.908;2024-01-06T11:27:33;97301.34;;;10.47
27826;BMP280;15077;49.704;9.908;2024-01-06T11:30:00;97292.72;;;10.51
27826;BMP280;15077;49.704;9.908;2024-01-06T11:32:34;97291.63;;;10.55
27826;BMP280;15077;49.704;9.908;2024-01-06T11:35:09;97289.69;;;10.60
27826;BMP280;15077;49.704;9.908;2024-01-06T11:37:36;97285.34;;;10.62
27826;BMP280;15077;49.704;9.908;2024-01-06T11:40:02;97282.66;;;10.64
27826;BMP280;15077;49.704;9.908;2024-01-06T11:42:32;97289.19;;;10.68
27826;BMP280;15077;49.704;9.908;2024-01-06T11:45:04;97283.16;;;10.71
27826;BMP280;15077;49.704;9.908;2024-01-06T11:47:34;97286.34;;;10.74
27826;BMP280;15077;49.704;9.908;2024-01-06T11:50:01;97277.59;;;10.80
27826;BMP280;15077;49.704;9.908;2024-01-06T11:52:33;97283.13;;;10.86
27826;BMP280;15077;49.704;9.908;2024-01-06T11:55:00;97282.97;;;10.89
27826;BMP280;15077;49.704;9.908;2024-01-06T11:57:26;97287.72;;;10.95
27826;BMP280;15077;49.704;9.908;2024-01-06T11:59:53;97283.94;;;11.02
27826;BMP280;15077;49.704;9.908;2024-01-06T12:02:19;97281.16;;;11.07
27826;BMP280;15077;49.704;9.908;2024-01-06T12:04:52;97283.34;;;11.13
27826;BMP280;15077;49.704;9.908;2024-01-06T12:07:18;97283.81;;;11.19
27826;BMP280;15077;49.704;9.908;2024-01-06T12:09:46;97286.19;;;11.22
27826;BMP280;15077;49.704;9.908;2024-01-06T12:12:15;97273.25;;;11.26
27826;BMP280;15077;49.704;9.908;2024-01-06T12:14:41;97273.09;;;11.29
27826;BMP280;15077;49.704;9.908;2024-01-06T12:17:12;97275.34;;;11.34
27826;BMP280;15077;49.704;9.908;2024-01-06T12:19:39;97274.28;;;11.38
27826;BMP280;15077;49.704;9.908;2024-01-06T12:22:07;97264.88;;;11.40
27826;BMP280;15077;49.704;9.908;2024-01-06T12:24:33;97263.88;;;11.42
27826;BMP280;15077;49.704;9.908;2024-01-06T12:26:59;97264.69;;;11.43
27826;BMP280;15077;49.704;9.908;2024-01-06T12:29:28;97267.97;;;11.45
27826;BMP280;15077;49.704;9.908;2024-01-06T12:31:55;97266.16;;;11.47
27826;BMP280;15077;49.704;9.908;2024-01-06T12:34:21;97266.03;;;11.50
27826;BMP280;15077;49.704;9.908;2024-01-06T12:36:47;97260.78;;;11.53
27826;BMP280;15077;49.704;9.908;2024-01-06T12:39:13;97257.16;;;11.57
27826;BMP280;15077;49.704;9.908;2024-01-06T12:41:42;97262.88;;;11.60
27826;BMP280;15077;49.704;9.908;2024-01-06T12:44:10;97260.06;;;11.64
27826;BMP280;15077;49.704;9.908;2024-01-06T12:46:36;97266.59;;;11.68
27826;BMP280;15077;49.704;9.908;2024-01-06T12:49:02;97263.72;;;11.74
27826;BMP280;15077;49.704;9.908;2024-01-06T12:51:28;97266.88;;;11.78
27826;BMP280;15077;49.704;9.908;2024-01-06T12:53:54;97265.72;;;11.83
27826;BMP280;15077;49.704;9.908;2024-01-06T12:56:19;97265.53;;;11.86
27826;BMP280;15077;49.704;9.908;2024-01-06T12:58:45;97267.00;;;11.90
27826;BMP280;15077;49.704;9.908;2024-01-06T13:01:11;97263.44;;;11.93
27826;BMP280;15077;49.704;9.908;2024-01-06T13:03:37;97266.66;;;11.96
27826;BMP280;15077;49.704;9.908;2024-01-06T13:06:03;97262.28;;;11.98
27826;BMP280;15077;49.704;9.908;2024-01-06T13:08:29;97268.09;;;12.00
27826;BMP280;15077;49.704;9.908;2024-01-06T13:10:55;97270.47;;;12.03
27826;BMP280;15077;49.704;9.908;2024-01-06T13:13:21;97278.72;;;12.07
27826;BMP280;15077;49.704;9.908;2024-01-06T13:15:47;97270.19;;;12.08
27826;BMP280;15077;49.704;9.908;2024-01-06T13:18:13;97271.00;;;12.08
27826;BMP280;15077;49.704;9.908;2024-01-06T13:20:40;97272.66;;;12.09
27826;BMP280;15077;49.704;9.908;2024-01-06T13:23:06;97275.19;;;12.09
27826;BMP280;15077;49.704;9.908;2024-01-06T13:25:32;97279.34;;;12.10
27826;BMP280;15077;49.704;9.908;2024-01-06T13:28:13;97279.34;;;12.10
27826;BMP280;15077;49.704;9.908;2024-01-06T13:31:10;97291.31;;;12.08
27826;BMP280;15077;49.704;9.908;2024-01-06T13:33:36;97287.31;;;12.04
27826;BMP280;15077;49.704;9.908;2024-01-06T13:36:23;97288.41;;;12.00
27826;BMP280;15077;49.704;9.908;2024-01-06T13:38:50;97286.97;;;11.96
27826;BMP280;15077;49.704;9.908;2024-01-06T13:41:15;97283.75;;;11.93
27826;BMP280;15077;49.704;9.908;2024-01-06T13:43:56;97291.28;;;11.94
27826;BMP280;15077;49.704;9.908;2024-01-06T13:46:22;97294.66;;;11.95
27826;BMP280;15077;49.704;9.908;2024-01-06T13:49:03;97289.69;;;11.93
27826;BMP280;15077;49.704;9.908;2024-01-06T13:51:48;97290.47;;;11.94
27826;BMP280;15077;49.704;9.908;2024-01-06T13:54:13;97295.38;;;11.97
27826;BMP280;15077;49.704;9.908;2024-01-06T13:56:51;97295.28;;;11.98
27826;BMP280;15077;49.704;9.908;2024-01-06T13:59:17;97296.75;;;12.02
27826;BMP280;15077;49.704;9.908;2024-01-06T14:01:43;97306.81;;;12.04
27826;BMP280;15077;49.704;9.908;2024-01-06T14:04:08;97301.66;;;12.05
27826;BMP280;15077;49.704;9.908;2024-01-06T14:06:34;97307.53;;;12.06
27826;BMP280;15077;49.704;9.908;2024-01-06T14:09:00;97312.63;;;12.06
27826;BMP280;15077;49.704;9.908;2024-01-06T14:11:26;97307.44;;;12.07
27826;BMP280;15077;49.704;9.908;2024-01-06T14:13:56;97314.25;;;12.07
27826;BMP280;15077;49.704;9.908;2024-01-06T14:16:22;97313.47;;;12.06
27826;BMP280;15077;49.704;9.908;2024-01-06T14:18:48;97319.53;;;12.04
27826;BMP280;15077;49.704;9.908;2024-01-06T14:21:13;97319.63;;;12.02
27826;BMP280;15077;49.704;9.908;2024-01-06T14:23:41;97313.72;;;12.02